sensor_id;sensor_type;location;lat;lon;timestamp;P1;durP1;ratioP1;P2;durP2;ratioP2
23058;SDS011;30585;51.502;7.218;2024-01-15T00:02:14;4.53;;;3.27;;
23058;SDS011;30585;51.502;7.218;2024-01-15T00:04:42;7.17;;;5.13;;
23058;SDS011;30585;51.502;7.218;2024-01-15T00:07:10;12.47;;;4.63;;
23058;SDS011;30585;51.502;7.218;2024-01-15T00:09:39;9.80;;;5.57;;
23058;SDS011;30585;51.502;7.218;2024-01-15T00:12:07;7.67;;;4.83;;
23058;SDS011;30585;51.502;7.218;2024-01-15T00:14:35;10.43;;;5.57;;
23058;SDS011;30585;51.502;7.218;2024-01-15T00:17:02;5.43;;;3.30;;
23058;SDS011;30585;51.502;7.218;2024-01-15T00:19:32;7.23;;;5.13;;
23058;SDS011;30585;51.502;7.218;2024-01-15T00:22:00;6.87;;;4.97;;
23058;SDS011;30585;51.502;7.218;2024-01-15T00:24:27;12.77;;;4.77;;
23058;SDS011;30585;51.502;7.218;2024-01-15T00:26:55;11.77;;;6.23;;
23058;SDS011;30585;51.502;7.218;2024-01-15T00:29:23;7.67;;;5.13;;
23058;SDS011;30585;51.502;7.218;2024-01-15T00:31:50;11.33;;;6.17;;
23058;SDS011;30585;51.502;7.218;2024-01-15T00:34:18;6.33;;;4.60;;
23058;SDS011;30585;51.502;7.218;2024-01-15T00:36:47;7.40;;;4.87;;
23058;SDS011;30585;51.502;7.218;2024-01-15T00:39:15;7.83;;;5.23;;
23058;SDS011;30585;51.502;7.218;2024-01-15T00:41:44;6.57;;;5.27;;
23058;SDS011;30585;51.502;7.218;2024-01-15T00:44:11;7.40;;;4.73;;
23058;SDS011;30585;51.502;7.218;2024-01-15T00:46:43;4.97;;;4.47;;
23058;SDS011;30585;51.502;7.218;2024-01-15T00:49:11;6.27;;;4.50;;
23058;SDS011;30585;51.502;7.218;2024-01-15T00:51:40;9.63;;;4.17;;
23058;SDS011;30585;51.502;7.218;2024-01-15T00:54:09;5.63;;;4.03;;
23058;SDS011;30585;51.502;7.218;2024-01-15T00:56:37;8.67;;;3.53;;
23058;SDS011;30585;51.502;7.218;2024-01-15T00:59:05;8.20;;;5.20;;
23058;SDS011;30585;51.502;7.218;2024-01-15T01:01:34;5.73;;;4.80;;
23058;SDS011;30585;51.502;7.218;2024-01-15T01:04:01;8.57;;;5.97;;
23058;SDS011;30585;51.502;7.218;2024-01-15T01:06:29;4.47;;;4.00;;
23058;SDS011;30585;51.502;7.218;2024-01-15T01:08:59;8.57;;;4.73;;
23058;SDS011;30585;51.502;7.218;2024-01-15T01:11:28;7.23;;;3.70;;
23058;SDS011;30585;51.502;7.218;2024-01-15T01:13:56;7.83;;;5.70;;
23058;SDS011;30585;51.502;7.218;2024-01-15T01:16:24;4.30;;;3.80;;
23058;SDS011;30585;51.502;7.218;2024-01-15T01:18:52;13.67;;;5.93;;
23058;SDS011;30585;51.502;7.218;2024-01-15T01:21:20;7.10;;;5.33;;
23058;SDS011;30585;51.502;7.218;2024-01-15T01:23:48;5.40;;;3.40;;
23058;SDS011;30585;51.502;7.218;2024-01-15T01:26:16;7.07;;;3.90;;
23058;SDS011;30585;51.502;7.218;2024-01-15T01:28:45;6.00;;;4.67;;
23058;SDS011;30585;51.502;7.218;2024-01-15T01:31:13;8.60;;;5.07;;
23058;SDS011;30585;51.502;7.218;2024-01-15T01:33:43;2.77;;;2.57;;
23058;SDS011;30585;51.502;7.218;2024-01-15T01:36:12;7.80;;;4.13;;
23058;SDS011;30585;51.502;7.218;2024-01-15T01:38:40;6.57;;;4.40;;
23058;SDS011;30585;51.502;7.218;2024-01-15T01:41:08;7.37;;;4.47;;
23058;SDS011;30585;51.502;7.218;2024-01-15T01:43:37;4.53;;;4.10;;
23058;SDS011;30585;51.502;7.218;2024-01-15T01:46:06;4.10;;;3.63;;
23058;SDS011;30585;51.502;7.218;2024-01-15T01:48:35;3.57;;;3.07;;
23058;SDS011;30585;51.502;7.218;2024-01-15T01:51:03;3.23;;;2.93;;
23058;SDS011;30585;51.502;7.218;2024-01-15T01:53:32;5.43;;;3.47;;
23058;SDS011;30585;51.502;7.218;2024-01-15T01:56:02;16.37;;;3.67;;
23058;SDS011;30585;51.502;7.218;2024-01-15T01:58:31;6.37;;;4.10;;
23058;SDS011;30585;51.502;7.218;2024-01-15T02:00:59;8.97;;;4.37;;
23058;SDS011;30585;51.502;7.218;2024-01-15T02:03:29;6.53;;;3.43;;
23058;SDS011;30585;51.502;7.218;2024-01-15T02:05:58;7.87;;;3.83;;
23058;SDS011;30585;51.502;7.218;2024-01-15T02:08:27;6.60;;;3.27;;
23058;SDS011;30585;51.502;7.218;2024-01-15T02:10:55;8.50;;;4.80;;
23058;SDS011;30585;51.502;7.218;2024-01-15T02:13:22;5.83;;;3.50;;
23058;SDS011;30585;51.502;7.218;2024-01-15T02:15:50;9.03;;;4.60;;
23058;SDS011;30585;51.502;7.218;2024-01-15T02:18:18;5.20;;;3.77;;
23058;SDS011;30585;51.502;7.218;2024-01-15T02:20:47;4.53;;;3.53;;
23058;SDS011;30585;51.502;7.218;2024-01-15T02:23:17;4.33;;;3.07;;
23058;SDS011;30585;51.502;7.218;2024-01-15T02:25:45;4.30;;;3.90;;
23058;SDS011;30585;51.502;7.218;2024-01-15T02:28:14;7.33;;;4.57;;
23058;SDS011;30585;51.502;7.218;2024-01-15T02:30:43;7.27;;;3.97;;
23058;SDS011;30585;51.502;7.218;2024-01-15T02:33:12;6.37;;;3.70;;
23058;SDS011;30585;51.502;7.218;2024-01-15T02:35:40;6.00;;;3.77;;
23058;SDS011;30585;51.502;7.218;2024-01-15T02:38:08;3.60;;;3.30;;
23058;SDS011;30585;51.502;7.218;2024-01-15T02:40:37;5.80;;;4.23;;
23058;SDS011;30585;51.502;7.218;2024-01-15T02:43:05;5.67;;;4.77;;
23058;SDS011;30585;51.502;7.218;2024-01-15T02:45:33;7.03;;;3.43;;
23058;SDS011;30585;51.502;7.218;2024-01-15T02:48:01;5.13;;;3.23;;
23058;SDS011;30585;51.502;7.218;2024-01-15T02:50:29;5.07;;;3.17;;
23058;SDS011;30585;51.502;7.218;2024-01-15T02:52:57;4.33;;;3.30;;
23058;SDS011;30585;51.502;7.218;2024-01-15T02:55:24;5.00;;;4.50;;
23058;SDS011;30585;51.502;7.218;2024-01-15T02:57:53;5.13;;;3.50;;
23058;SDS011;30585;51.502;7.218;2024-01-15T03:00:21;3.87;;;2.90;;
23058;SDS011;30585;51.502;7.218;2024-01-15T03:02:50;3.40;;;3.10;;
23058;SDS011;30585;51.502;7.218;2024-01-15T03:05:18;8.00;;;4.00;;
23058;SDS011;30585;51.502;7.218;2024-01-15T03:07:46;5.50;;;4.33;;
23058;SDS011;30585;51.502;7.218;2024-01-15T03:10:14;4.10;;;2.70;;
23058;SDS011;30585;51.502;7.218;2024-01-15T03:12:42;4.40;;;3.27;;
23058;SDS011;30585;51.502;7.218;2024-01-15T03:15:11;5.83;;;3.30;;
23058;SDS011;30585;51.502;7.218;2024-01-15T03:17:39;6.47;;;3.30;;
23058;SDS011;30585;51.502;7.218;2024-01-15T03:20:08;3.90;;;3.23;;
23058;SDS011;30585;51.502;7.218;2024-01-15T03:22:37;11.90;;;2.47;;
23058;SDS011;30585;51.502;7.218;2024-01-15T03:25:06;2.60;;;2.03;;
23058;SDS011;30585;51.502;7.218;2024-01-15T03:27:34;4.20;;;2.23;;
23058;SDS011;30585;51.502;7.218;2024-01-15T03:30:02;3.87;;;2.57;;
23058;SDS011;30585;51.502;7.218;2024-01-15T03:32:32;13.63;;;3.20;;
23058;SDS011;30585;51.502;7.218;2024-01-15T03:34:59;2.10;;;1.87;;
23058;SDS011;30585;51.502;7.218;2024-01-15T03:37:27;4.17;;;3.77;;
23058;SDS011;30585;51.502;7.218;2024-01-15T03:39:55;3.90;;;2.87;;
23058;SDS011;30585;51.502;7.218;2024-01-15T03:42:23;2.63;;;2.37;;
23058;SDS011;30585;51.502;7.218;2024-01-15T03:44:51;1.80;;;1.53;;
23058;SDS011;30585;51.502;7.218;2024-01-15T03:47:18;3.07;;;2.57;;
23058;SDS011;30585;51.502;7.218;2024-01-15T03:49:48;3.90;;;3.43;;
23058;SDS011;30585;51.502;7.218;2024-01-15T03:52:15;3.67;;;2.20;;
23058;SDS011;30585;51.502;7.218;2024-01-15T03:54:43;3.83;;;2.37;;
23058;SDS011;30585;51.502;7.218;2024-01-15T03:57:11;2.80;;;2.17;;
23058;SDS011;30585;51.502;7.218;2024-01-15T03:59:40;3.57;;;2.60;;
23058;SDS011;30585;51.502;7.218;2024-01-15T04:02:07;4.67;;;3.77;;
23058;SDS011;30585;51.502;7.218;2024-01-15T04:04:35;2.10;;;1.90;;
23058;SDS011;30585;51.502;7.218;2024-01-15T04:07:05;3.37;;;2.73;;
23058;SDS011;30585;51.502;7.218;2024-01-15T04:09:32;8.83;;;2.37;;
23058;SDS011;30585;51.502;7.218;2024-01-15T04:12:00;3.37;;;2.13;;
23058;SDS011;30585;51.502;7.218;2024-01-15T04:14:28;4.40;;;2.40;;
23058;SDS011;30585;51.502;7.218;2024-01-15T04:16:56;3.90;;;1.93;;
23058;SDS011;30585;51.502;7.218;2024-01-15T04:19:24;2.87;;;2.10;;
23058;SDS011;30585;51.502;7.218;2024-01-15T04:21:52;3.50;;;2.30;;
23058;SDS011;30585;51.502;7.218;2024-01-15T04:24:21;4.53;;;3.13;;
23058;SDS011;30585;51.502;7.218;2024-01-15T04:26:49;2.00;;;1.87;;
23058;SDS011;30585;51.502;7.218;2024-01-15T04:29:17;3.93;;;2.43;;
23058;SDS011;30585;51.502;7.218;2024-01-15T04:31:44;2.20;;;1.73;;
23058;SDS011;30585;51.502;7.218;2024-01-15T04:34:12;5.13;;;2.03;;
23058;SDS011;30585;51.502;7.218;2024-01-15T04:36:40;7.40;;;2.70;;
23058;SDS011;30585;51.502;7.218;2024-01-15T04:39:08;2.37;;;2.10;;
23058;SDS011;30585;51.502;7.218;2024-01-15T04:41:38;3.70;;;2.37;;
23058;SDS011;30585;51.502;7.218;2024-01-15T04:44:06;2.83;;;2.47;;
23058;SDS011;30585;51.502;7.218;2024-01-15T04:46:33;4.27;;;2.87;;
23058;SDS011;30585;51.502;7.218;2024-01-15T04:49:01;3.13;;;2.87;;
23058;SDS011;30585;51.502;7.218;2024-01-15T04:51:29;2.77;;;2.53;;
23058;SDS011;30585;51.502;7.218;2024-01-15T04:53:57;4.30;;;2.97;;
23058;SDS011;30585;51.502;7.218;2024-01-15T04:56:26;2.63;;;2.33;;
23058;SDS011;30585;51.502;7.218;2024-01-15T04:58:55;2.27;;;2.07;;
23058;SDS011;30585;51.502;7.218;2024-01-15T05:01:23;4.13;;;2.63;;
23058;SDS011;30585;51.502;7.218;2024-01-15T05:03:51;4.37;;;2.43;;
23058;SDS011;30585;51.502;7.218;2024-01-15T05:06:21;5.17;;;3.07;;
23058;SDS011;30585;51.502;7.218;2024-01-15T05:08:49;7.00;;;3.57;;
23058;SDS011;30585;51.502;7.218;2024-01-15T05:11:17;5.30;;;2.10;;
23058;SDS011;30585;51.502;7.218;2024-01-15T05:13:45;4.23;;;2.83;;
23058;SDS011;30585;51.502;7.218;2024-01-15T05:16:15;4.17;;;2.50;;
23058;SDS011;30585;51.502;7.218;2024-01-15T05:18:43;3.13;;;2.30;;
23058;SDS011;30585;51.502;7.218;2024-01-15T05:21:11;4.93;;;3.50;;
23058;SDS011;30585;51.502;7.218;2024-01-15T05:23:38;2.60;;;2.20;;
23058;SDS011;30585;51.502;7.218;2024-01-15T05:26:06;3.87;;;2.77;;
23058;SDS011;30585;51.502;7.218;2024-01-15T05:28:35;6.53;;;3.90;;
23058;SDS011;30585;51.502;7.218;2024-01-15T05:31:03;6.10;;;3.77;;
23058;SDS011;30585;51.502;7.218;2024-01-15T05:33:32;9.70;;;2.83;;
23058;SDS011;30585;51.502;7.218;2024-01-15T05:36:00;2.80;;;2.53;;
23058;SDS011;30585;51.502;7.218;2024-01-15T05:38:28;3.83;;;2.20;;
23058;SDS011;30585;51.502;7.218;2024-01-15T05:40:56;2.87;;;2.07;;
23058;SDS011;30585;51.502;7.218;2024-01-15T05:43:24;4.03;;;3.63;;
23058;SDS011;30585;51.502;7.218;2024-01-15T05:45:51;4.03;;;2.50;;
23058;SDS011;30585;51.502;7.218;2024-01-15T05:48:19;2.57;;;2.33;;
23058;SDS011;30585;51.502;7.218;2024-01-15T05:50:49;5.67;;;1.63;;
23058;SDS011;30585;51.502;7.218;2024-01-15T05:53:16;2.37;;;2.17;;
23058;SDS011;30585;51.502;7.218;2024-01-15T05:55:44;3.13;;;1.93;;
23058;SDS011;30585;51.502;7.218;2024-01-15T05:58:12;3.23;;;2.77;;
23058;SDS011;30585;51.502;7.218;2024-01-15T06:00:40;5.50;;;2.03;;
23058;SDS011;30585;51.502;7.218;2024-01-15T06:03:07;3.00;;;2.20;;
23058;SDS011;30585;51.502;7.218;2024-01-15T06:05:35;3.37;;;2.97;;
23058;SDS011;30585;51.502;7.218;2024-01-15T06:08:04;7.50;;;2.53;;
23058;SDS011;30585;51.502;7.218;2024-01-15T06:10:32;3.63;;;1.97;;
23058;SDS011;30585;51.502;7.218;2024-01-15T06:13:00;2.87;;;2.53;;
23058;SDS011;30585;51.502;7.218;2024-01-15T06:15:28;5.50;;;2.00;;
23058;SDS011;30585;51.502;7.218;2024-01-15T06:17:55;6.27;;;4.00;;
23058;SDS011;30585;51.502;7.218;2024-01-15T06:20:23;3.07;;;2.77;;
23058;SDS011;30585;51.502;7.218;2024-01-15T06:22:54;2.40;;;2.07;;
23058;SDS011;30585;51.502;7.218;2024-01-15T06:25:24;3.13;;;1.50;;
23058;SDS011;30585;51.502;7.218;2024-01-15T06:27:52;1.97;;;1.80;;
23058;SDS011;30585;51.502;7.218;2024-01-15T06:30:20;3.03;;;2.23;;
23058;SDS011;30585;51.502;7.218;2024-01-15T06:32:48;5.43;;;1.90;;
23058;SDS011;30585;51.502;7.218;2024-01-15T06:35:17;5.10;;;1.73;;
23058;SDS011;30585;51.502;7.218;2024-01-15T06:37:48;4.20;;;3.10;;
23058;SDS011;30585;51.502;7.218;2024-01-15T06:40:16;2.03;;;1.37;;
23058;SDS011;30585;51.502;7.218;2024-01-15T06:42:45;3.80;;;2.30;;
23058;SDS011;30585;51.502;7.218;2024-01-15T06:45:13;7.30;;;3.47;;
23058;SDS011;30585;51.502;7.218;2024-01-15T06:47:41;2.53;;;2.33;;
23058;SDS011;30585;51.502;7.218;2024-01-15T06:50:09;3.93;;;1.70;;
23058;SDS011;30585;51.502;7.218;2024-01-15T06:52:36;1.93;;;1.80;;
23058;SDS011;30585;51.502;7.218;2024-01-15T06:55:05;3.73;;;2.23;;
23058;SDS011;30585;51.502;7.218;2024-01-15T06:57:33;5.57;;;2.90;;
23058;SDS011;30585;51.502;7.218;2024-01-15T07:00:02;3.30;;;1.90;;
23058;SDS011;30585;51.502;7.218;2024-01-15T07:02:34;4.47;;;1.97;;
23058;SDS011;30585;51.502;7.218;2024-01-15T07:05:02;2.20;;;2.00;;
23058;SDS011;30585;51.502;7.218;2024-01-15T07:07:31;2.40;;;2.20;;
23058;SDS011;30585;51.502;7.218;2024-01-15T07:09:59;4.30;;;2.20;;
23058;SDS011;30585;51.502;7.218;2024-01-15T07:12:26;2.93;;;2.40;;
23058;SDS011;30585;51.502;7.218;2024-01-15T07:14:54;3.33;;;2.17;;
23058;SDS011;30585;51.502;7.218;2024-01-15T07:17:24;2.20;;;1.80;;
23058;SDS011;30585;51.502;7.218;2024-01-15T07:19:52;2.83;;;1.47;;
23058;SDS011;30585;51.502;7.218;2024-01-15T07:22:19;2.77;;;1.73;;
23058;SDS011;30585;51.502;7.218;2024-01-15T07:24:47;5.07;;;1.67;;
23058;SDS011;30585;51.502;7.218;2024-01-15T07:27:15;3.27;;;2.73;;
23058;SDS011;30585;51.502;7.218;2024-01-15T07:29:43;2.83;;;1.97;;
23058;SDS011;30585;51.502;7.218;2024-01-15T07:32:11;1.90;;;1.80;;
23058;SDS011;30585;51.502;7.218;2024-01-15T07:34:40;2.43;;;2.00;;
23058;SDS011;30585;51.502;7.218;2024-01-15T07:37:08;2.37;;;1.63;;
23058;SDS011;30585;51.502;7.218;2024-01-15T07:39:36;3.07;;;2.30;;
23058;SDS011;30585;51.502;7.218;2024-01-15T07:42:04;2.07;;;1.87;;
23058;SDS011;30585;51.502;7.218;2024-01-15T07:44:33;1.77;;;1.00;;
23058;SDS011;30585;51.502;7.218;2024-01-15T07:47:01;1.83;;;1.40;;
23058;SDS011;30585;51.502;7.218;2024-01-15T07:49:29;2.77;;;1.47;;
23058;SDS011;30585;51.502;7.218;2024-01-15T07:51:59;2.13;;;1.63;;
23058;SDS011;30585;51.502;7.218;2024-01-15T07:54:27;1.53;;;1.43;;
23058;SDS011;30585;51.502;7.218;2024-01-15T07:56:55;2.43;;;1.60;;
23058;SDS011;30585;51.502;7.218;2024-01-15T07:59:23;7.47;;;1.70;;
23058;SDS011;30585;51.502;7.218;2024-01-15T08:01:51;4.53;;;1.23;;
23058;SDS011;30585;51.502;7.218;2024-01-15T08:04:20;1.77;;;1.37;;
23058;SDS011;30585;51.502;7.218;2024-01-15T08:06:48;1.53;;;1.27;;
23058;SDS011;30585;51.502;7.218;2024-01-15T08:09:17;1.90;;;1.67;;
23058;SDS011;30585;51.502;7.218;2024-01-15T08:11:45;3.27;;;2.00;;
23058;SDS011;30585;51.502;7.218;2024-01-15T08:14:12;3.07;;;1.30;;
23058;SDS011;30585;51.502;7.218;2024-01-15T08:16:40;8.00;;;1.77;;
23058;SDS011;30585;51.502;7.218;2024-01-15T08:19:09;1.47;;;1.17;;
23058;SDS011;30585;51.502;7.218;2024-01-15T08:21:38;1.43;;;1.23;;
23058;SDS011;30585;51.502;7.218;2024-01-15T08:24:06;1.37;;;1.03;;
23058;SDS011;30585;51.502;7.218;2024-01-15T08:26:35;1.47;;;1.00;;
23058;SDS011;30585;51.502;7.218;2024-01-15T08:29:03;10.13;;;1.63;;
23058;SDS011;30585;51.502;7.218;2024-01-15T08:31:31;1.43;;;1.33;;
23058;SDS011;30585;51.502;7.218;2024-01-15T08:33:59;4.97;;;2.47;;
23058;SDS011;30585;51.502;7.218;2024-01-15T08:36:28;3.57;;;1.73;;
23058;SDS011;30585;51.502;7.218;2024-01-15T08:38:57;2.23;;;2.03;;
23058;SDS011;30585;51.502;7.218;2024-01-15T08:41:24;1.97;;;1.33;;
23058;SDS011;30585;51.502;7.218;2024-01-15T08:43:53;2.90;;;2.47;;
23058;SDS011;30585;51.502;7.218;2024-01-15T08:46:21;2.50;;;2.10;;
23058;SDS011;30585;51.502;7.218;2024-01-15T08:48:49;2.77;;;1.60;;
23058;SDS011;30585;51.502;7.218;2024-01-15T08:51:17;1.20;;;1.07;;
23058;SDS011;30585;51.502;7.218;2024-01-15T08:53:45;3.27;;;1.83;;
23058;SDS011;30585;51.502;7.218;2024-01-15T08:56:13;1.27;;;1.20;;
23058;SDS011;30585;51.502;7.218;2024-01-15T08:58:41;2.07;;;1.87;;
23058;SDS011;30585;51.502;7.218;2024-01-15T09:01:10;1.80;;;1.70;;
23058;SDS011;30585;51.502;7.218;2024-01-15T09:03:38;2.57;;;2.07;;
23058;SDS011;30585;51.502;7.218;2024-01-15T09:06:08;3.00;;;1.80;;
23058;SDS011;30585;51.502;7.218;2024-01-15T09:08:36;2.40;;;2.07;;
23058;SDS011;30585;51.502;7.218;2024-01-15T09:11:04;2.13;;;1.87;;
23058;SDS011;30585;51.502;7.218;2024-01-15T09:13:32;3.63;;;2.10;;
23058;SDS011;30585;51.502;7.218;2024-01-15T09:16:01;4.20;;;3.10;;
23058;SDS011;30585;51.502;7.218;2024-01-15T09:18:31;1.67;;;1.33;;
23058;SDS011;30585;51.502;7.218;2024-01-15T09:20:59;1.97;;;1.70;;
23058;SDS011;30585;51.502;7.218;2024-01-15T09:23:27;5.07;;;2.67;;
23058;SDS011;30585;51.502;7.218;2024-01-15T09:25:55;3.40;;;2.97;;
23058;SDS011;30585;51.502;7.218;2024-01-15T09:28:23;3.30;;;2.13;;
23058;SDS011;30585;51.502;7.218;2024-01-15T09:30:50;4.37;;;3.97;;
23058;SDS011;30585;51.502;7.218;2024-01-15T09:33:18;3.30;;;3.00;;
23058;SDS011;30585;51.502;7.218;2024-01-15T09:35:47;6.13;;;4.33;;
23058;SDS011;30585;51.502;7.218;2024-01-15T09:38:15;4.03;;;2.77;;
23058;SDS011;30585;51.502;7.218;2024-01-15T09:40:45;4.67;;;2.60;;
23058;SDS011;30585;51.502;7.218;2024-01-15T09:43:13;9.63;;;3.80;;
23058;SDS011;30585;51.502;7.218;2024-01-15T09:45:42;2.20;;;2.00;;
23058;SDS011;30585;51.502;7.218;2024-01-15T09:48:11;2.57;;;2.17;;
23058;SDS011;30585;51.502;7.218;2024-01-15T09:50:39;3.03;;;2.40;;
23058;SDS011;30585;51.502;7.218;2024-01-15T09:53:08;2.93;;;1.60;;
23058;SDS011;30585;51.502;7.218;2024-01-15T09:55:37;2.73;;;2.53;;
23058;SDS011;30585;51.502;7.218;2024-01-15T09:58:05;3.27;;;3.07;;
23058;SDS011;30585;51.502;7.218;2024-01-15T10:00:33;2.53;;;2.20;;
23058;SDS011;30585;51.502;7.218;2024-01-15T10:03:03;3.43;;;2.80;;
23058;SDS011;30585;51.502;7.218;2024-01-15T10:05:32;11.17;;;1.87;;
23058;SDS011;30585;51.502;7.218;2024-01-15T10:08:00;2.30;;;1.70;;
23058;SDS011;30585;51.502;7.218;2024-01-15T10:10:30;2.70;;;2.27;;
23058;SDS011;30585;51.502;7.218;2024-01-15T10:12:58;2.47;;;1.73;;
23058;SDS011;30585;51.502;7.218;2024-01-15T10:15:27;4.57;;;3.17;;
23058;SDS011;30585;51.502;7.218;2024-01-15T10:17:55;2.00;;;1.83;;
23058;SDS011;30585;51.502;7.218;2024-01-15T10:20:23;1.57;;;1.47;;
23058;SDS011;30585;51.502;7.218;2024-01-15T10:22:51;0.83;;;0.83;;
23058;SDS011;30585;51.502;7.218;2024-01-15T10:25:19;2.37;;;2.20;;
23058;SDS011;30585;51.502;7.218;2024-01-15T10:28:00;3.50;;;2.63;;
23058;SDS011;30585;51.502;7.218;2024-01-15T10:30:28;3.67;;;2.70;;
23058;SDS011;30585;51.502;7.218;2024-01-15T10:32:57;2.43;;;2.20;;
23058;SDS011;30585;51.502;7.218;2024-01-15T10:35:26;3.83;;;2.27;;
23058;SDS011;30585;51.502;7.218;2024-01-15T10:37:58;3.27;;;2.23;;
23058;SDS011;30585;51.502;7.218;2024-01-15T10:40:25;3.83;;;2.37;;
23058;SDS011;30585;51.502;7.218;2024-01-15T10:42:53;4.43;;;3.30;;
23058;SDS011;30585;51.502;7.218;2024-01-15T10:45:23;4.27;;;2.97;;
23058;SDS011;30585;51.502;7.218;2024-01-15T10:47:51;2.50;;;2.30;;
23058;SDS011;30585;51.502;7.218;2024-01-15T10:50:20;3.77;;;3.20;;
23058;SDS011;30585;51.502;7.218;2024-01-15T10:52:48;3.00;;;2.73;;
23058;SDS011;30585;51.502;7.218;2024-01-15T10:55:17;4.30;;;3.23;;
23058;SDS011;30585;51.502;7.218;2024-01-15T10:57:46;2.97;;;2.60;;
23058;SDS011;30585;51.502;7.218;2024-01-15T11:00:16;2.50;;;2.30;;
23058;SDS011;30585;51.502;7.218;2024-01-15T11:02:46;4.70;;;3.93;;
23058;SDS011;30585;51.502;7.218;2024-01-15T11:05:14;2.83;;;2.20;;
23058;SDS011;30585;51.502;7.218;2024-01-15T11:07:48;4.43;;;2.43;;
23058;SDS011;30585;51.502;7.218;2024-01-15T11:13:05;3.77;;;1.47;;
23058;SDS011;30585;51.502;7.218;2024-01-15T11:18:23;3.93;;;2.87;;
23058;SDS011;30585;51.502;7.218;2024-01-15T11:23:49;3.03;;;2.23;;
23058;SDS011;30585;51.502;7.218;2024-01-15T11:29:28;1.93;;;1.73;;
23058;SDS011;30585;51.502;7.218;2024-01-15T11:32:01;2.10;;;1.77;;
23058;SDS011;30585;51.502;7.218;2024-01-15T11:37:21;5.20;;;3.03;;
23058;SDS011;30585;51.502;7.218;2024-01-15T11:39:51;2.07;;;1.53;;
23058;SDS011;30585;51.502;7.218;2024-01-15T11:42:20;5.90;;;2.70;;
23058;SDS011;30585;51.502;7.218;2024-01-15T11:44:49;1.93;;;1.73;;
23058;SDS011;30585;51.502;7.218;2024-01-15T11:47:23;4.80;;;1.50;;
23058;SDS011;30585;51.502;7.218;2024-01-15T11:50:14;1.30;;;1.20;;
23058;SDS011;30585;51.502;7.218;2024-01-15T11:52:42;2.17;;;2.07;;
23058;SDS011;30585;51.502;7.218;2024-01-15T11:55:17;2.03;;;1.80;;
23058;SDS011;30585;51.502;7.218;2024-01-15T11:57:50;2.87;;;2.13;;
23058;SDS011;30585;51.502;7.218;2024-01-15T12:00:18;2.30;;;1.30;;
23058;SDS011;30585;51.502;7.218;2024-01-15T12:02:47;1.03;;;0.97;;
23058;SDS011;30585;51.502;7.218;2024-01-15T12:05:18;0.63;;;0.63;;
23058;SDS011;30585;51.502;7.218;2024-01-15T12:07:48;2.47;;;1.60;;
23058;SDS011;30585;51.502;7.218;2024-01-15T12:10:17;2.70;;;1.50;;
23058;SDS011;30585;51.502;7.218;2024-01-15T12:12:53;2.00;;;1.73;;
23058;SDS011;30585;51.502;7.218;2024-01-15T12:15:24;0.83;;;0.70;;
23058;SDS011;30585;51.502;7.218;2024-01-15T12:17:54;3.07;;;1.60;;
23058;SDS011;30585;51.502;7.218;2024-01-15T12:20:25;5.10;;;2.40;;
23058;SDS011;30585;51.502;7.218;2024-01-15T12:22:55;1.37;;;1.17;;
23058;SDS011;30585;51.502;7.218;2024-01-15T12:25:29;2.43;;;2.00;;
23058;SDS011;30585;51.502;7.218;2024-01-15T12:27:58;3.13;;;1.37;;
23058;SDS011;30585;51.502;7.218;2024-01-15T12:30:26;1.90;;;1.27;;
23058;SDS011;30585;51.502;7.218;2024-01-15T12:32:54;1.57;;;1.43;;
23058;SDS011;30585;51.502;7.218;2024-01-15T12:35:24;3.00;;;2.50;;
23058;SDS011;30585;51.502;7.218;2024-01-15T12:37:53;2.17;;;2.00;;
23058;SDS011;30585;51.502;7.218;2024-01-15T12:40:22;1.37;;;1.27;;
23058;SDS011;30585;51.502;7.218;2024-01-15T12:42:51;3.07;;;1.73;;
23058;SDS011;30585;51.502;7.218;2024-01-15T12:45:19;4.77;;;1.70;;
23058;SDS011;30585;51.502;7.218;2024-01-15T12:47:47;1.20;;;1.17;;
23058;SDS011;30585;51.502;7.218;2024-01-15T12:50:17;2.50;;;1.70;;
23058;SDS011;30585;51.502;7.218;2024-01-15T12:52:48;9.20;;;1.00;;
23058;SDS011;30585;51.502;7.218;2024-01-15T12:55:16;2.27;;;1.30;;
23058;SDS011;30585;51.502;7.218;2024-01-15T12:57:43;5.43;;;2.23;;
23058;SDS011;30585;51.502;7.218;2024-01-15T13:00:12;1.87;;;1.67;;
23058;SDS011;30585;51.502;7.218;2024-01-15T13:02:41;5.23;;;2.50;;
23058;SDS011;30585;51.502;7.218;2024-01-15T13:05:10;1.63;;;1.43;;
23058;SDS011;30585;51.502;7.218;2024-01-15T13:07:41;0.93;;;0.90;;
23058;SDS011;30585;51.502;7.218;2024-01-15T13:10:11;1.03;;;0.93;;
23058;SDS011;30585;51.502;7.218;2024-01-15T13:12:39;0.63;;;0.57;;
23058;SDS011;30585;51.502;7.218;2024-01-15T13:15:08;1.67;;;1.23;;
23058;SDS011;30585;51.502;7.218;2024-01-15T13:17:40;1.53;;;1.20;;
23058;SDS011;30585;51.502;7.218;2024-01-15T13:20:09;4.60;;;1.60;;
23058;SDS011;30585;51.502;7.218;2024-01-15T13:22:38;2.17;;;1.50;;
23058;SDS011;30585;51.502;7.218;2024-01-15T13:25:07;1.17;;;1.07;;
23058;SDS011;30585;51.502;7.218;2024-01-15T13:27:37;1.47;;;1.20;;
23058;SDS011;30585;51.502;7.218;2024-01-15T13:30:07;3.10;;;1.20;;
23058;SDS011;30585;51.502;7.218;2024-01-15T13:32:36;1.80;;;1.30;;
23058;SDS011;30585;51.502;7.218;2024-01-15T13:35:04;3.30;;;1.33;;
23058;SDS011;30585;51.502;7.218;2024-01-15T13:37:36;1.20;;;1.07;;
23058;SDS011;30585;51.502;7.218;2024-01-15T13:40:04;2.17;;;1.33;;
23058;SDS011;30585;51.502;7.218;2024-01-15T13:42:34;3.07;;;1.37;;
23058;SDS011;30585;51.502;7.218;2024-01-15T13:45:06;3.10;;;1.90;;
23058;SDS011;30585;51.502;7.218;2024-01-15T13:47:34;6.97;;;1.30;;
23058;SDS011;30585;51.502;7.218;2024-01-15T13:50:04;1.77;;;1.40;;
23058;SDS011;30585;51.502;7.218;2024-01-15T13:52:32;4.60;;;1.90;;
23058;SDS011;30585;51.502;7.218;2024-01-15T13:55:00;1.60;;;0.90;;
23058;SDS011;30585;51.502;7.218;2024-01-15T13:57:28;1.37;;;0.90;;
23058;SDS011;30585;51.502;7.218;2024-01-15T13:59:55;0.60;;;0.60;;
23058;SDS011;30585;51.502;7.218;2024-01-15T14:02:24;0.93;;;0.63;;
23058;SDS011;30585;51.502;7.218;2024-01-15T14:04:53;1.37;;;1.27;;
23058;SDS011;30585;51.502;7.218;2024-01-15T14:07:21;1.90;;;0.80;;
23058;SDS011;30585;51.502;7.218;2024-01-15T14:09:48;1.53;;;0.87;;
23058;SDS011;30585;51.502;7.218;2024-01-15T14:12:16;5.13;;;1.87;;
23058;SDS011;30585;51.502;7.218;2024-01-15T14:14:44;1.07;;;0.97;;
23058;SDS011;30585;51.502;7.218;2024-01-15T14:17:12;0.93;;;0.80;;
23058;SDS011;30585;51.502;7.218;2024-01-15T14:19:41;1.53;;;1.03;;
23058;SDS011;30585;51.502;7.218;2024-01-15T14:22:09;1.83;;;1.60;;
23058;SDS011;30585;51.502;7.218;2024-01-15T14:24:37;2.97;;;2.00;;
23058;SDS011;30585;51.502;7.218;2024-01-15T14:27:05;1.23;;;1.13;;
23058;SDS011;30585;51.502;7.218;2024-01-15T14:29:33;1.73;;;1.10;;
23058;SDS011;30585;51.502;7.218;2024-01-15T14:32:02;2.07;;;1.87;;
23058;SDS011;30585;51.502;7.218;2024-01-15T14:34:30;2.60;;;2.40;;
23058;SDS011;30585;51.502;7.218;2024-01-15T14:36:59;8.13;;;2.07;;
23058;SDS011;30585;51.502;7.218;2024-01-15T14:39:27;2.17;;;1.47;;
23058;SDS011;30585;51.502;7.218;2024-01-15T14:41:54;0.60;;;0.60;;
23058;SDS011;30585;51.502;7.218;2024-01-15T14:44:23;5.30;;;1.43;;
23058;SDS011;30585;51.502;7.218;2024-01-15T14:46:50;1.37;;;1.03;;
23058;SDS011;30585;51.502;7.218;2024-01-15T14:49:18;1.00;;;0.90;;
23058;SDS011;30585;51.502;7.218;2024-01-15T14:51:46;1.20;;;1.07;;
23058;SDS011;30585;51.502;7.218;2024-01-15T14:54:17;0.77;;;0.77;;
23058;SDS011;30585;51.502;7.218;2024-01-15T14:56:48;2.20;;;1.00;;
23058;SDS011;30585;51.502;7.218;2024-01-15T14:59:15;0.93;;;0.87;;
23058;SDS011;30585;51.502;7.218;2024-01-15T15:01:43;1.57;;;0.90;;
23058;SDS011;30585;51.502;7.218;2024-01-15T15:04:11;0.87;;;0.60;;
23058;SDS011;30585;51.502;7.218;2024-01-15T15:06:39;1.77;;;0.73;;
23058;SDS011;30585;51.502;7.218;2024-01-15T15:09:07;0.40;;;0.40;;
23058;SDS011;30585;51.502;7.218;2024-01-15T15:11:37;0.40;;;0.40;;